createdAt,value
2019-04-20T00:02:15.597Z,91.10
2019-04-20T00:04:57.101Z,92.10
2019-04-20T00:07:43.880Z,92.10
2019-04-20T00:10:30.860Z,93.70
2019-04-20T00:13:25.548Z,92.60
2019-04-20T00:16:04.128Z,91.70
2019-04-20T00:18:54.836Z,92.00
2019-04-20T00:21:47.009Z,90.10
2019-04-20T00:24:34.415Z,92.20
2019-04-20T00:27:43.893Z,93.90
2019-04-20T00:30:28.733Z,91.90
2019-04-20T00:33:05.619Z,92.10
2019-04-20T00:35:40.574Z,93.30
2019-04-20T00:38:29.073Z,91.20
2019-04-20T00:41:16.861Z,92.20
2019-04-20T00:44:08.344Z,93.80
2019-04-20T00:47:06.087Z,93.10
2019-04-20T00:49:48.155Z,92.70
2019-04-20T00:52:32.834Z,92.70
2019-04-20T00:55:08.421Z,91.60
2019-04-20T00:57:59.501Z,93.80
2019-04-20T01:01:09.508Z,94.30
2019-04-20T01:03:43.228Z,94.60
2019-04-20T01:06:50.296Z,94.70
2019-04-20T01:09:39.717Z,94.90
2019-04-20T01:12:28.571Z,94.70
2019-04-20T01:15:22.861Z,94.80
2019-04-20T01:17:58.821Z,95.30
2019-04-20T01:20:43.743Z,95.10
2019-04-20T01:23:35.558Z,94.70
2019-04-20T01:26:20.517Z,94.90
2019-04-20T01:29:16.990Z,95.80
2019-04-20T01:32:05.737Z,95.30
2019-04-20T01:34:51.130Z,94.70
2019-04-20T01:37:36.535Z,95.80
2019-04-20T01:40:13.082Z,95.90
2019-04-20T01:42:59.497Z,95.20
2019-04-20T01:45:45.750Z,96.10
2019-04-20T01:48:35.077Z,95.90
2019-04-20T01:51:23.312Z,97.10
2019-04-20T01:54:24.955Z,96.80
2019-04-20T01:57:04.677Z,96.80
2019-04-20T01:59:55.281Z,98.00
2019-04-20T02:02:45.039Z,97.50
2019-04-20T02:05:29.439Z,97.20
2019-04-20T02:08:14.493Z,98.00
2019-04-20T02:11:00.540Z,98.10
2019-04-20T02:13:49.857Z,98.50
2019-04-20T02:16:37.205Z,97.70
2019-04-20T02:19:34.632Z,97.00
2019-04-20T02:22:15.659Z,97.70
2019-04-20T02:24:53.048Z,98.20
2019-04-20T02:27:45.399Z,98.80
2019-04-20T02:33:48.881Z,99.50
2019-04-20T02:36:51.496Z,99.00
2019-04-20T02:39:37.538Z,98.70
2019-04-20T02:45:23.938Z,98.50
2019-04-20T02:47:53.544Z,98.90
2019-04-20T02:53:39.016Z,98.40
2019-04-20T02:59:27.075Z,99.90
2019-04-20T03:01:43.640Z,99.80
2019-04-20T03:04:17.562Z,99.90
2019-04-20T03:07:07.956Z,99.90
2019-04-20T03:09:56.335Z,99.90
2019-04-20T03:12:47.818Z,99.90
2019-04-20T03:15:36.022Z,99.90
2019-04-20T03:18:19.700Z,99.90
2019-04-20T03:21:12.746Z,99.90
2019-04-20T03:24:03.960Z,99.90
2019-04-20T03:26:50.541Z,99.90
2019-04-20T03:29:40.978Z,99.90
2019-04-20T03:35:20.571Z,99.90
2019-04-20T03:38:07.420Z,99.90
2019-04-20T03:40:46.498Z,99.90
2019-04-20T03:43:18.086Z,99.90
2019-04-20T03:46:08.375Z,99.90
2019-04-20T03:49:07.159Z,99.90
2019-04-20T03:51:57.329Z,99.90
2019-04-20T03:54:52.276Z,99.90
2019-04-20T03:58:10.209Z,99.90
2019-04-20T04:01:05.010Z,99.90
2019-04-20T04:04:04.235Z,99.90
2019-04-20T04:06:34.059Z,99.90
2019-04-20T04:09:24.884Z,99.90
2019-04-20T04:12:40.351Z,99.90
2019-04-20T04:15:23.088Z,99.90
2019-04-20T04:18:17.741Z,99.90
2019-04-20T04:21:03.888Z,99.90
2019-04-20T04:24:02.183Z,99.90
2019-04-20T04:26:47.987Z,99.90
2019-04-20T04:29:44.203Z,99.90
2019-04-20T04:32:39.373Z,99.90
2019-04-20T04:35:12.587Z,99.90
2019-04-20T04:37:58.837Z,99.90
2019-04-20T04:40:55.476Z,99.90
2019-04-20T04:43:35.925Z,99.90
2019-04-20T04:46:01.718Z,99.90
2019-04-20T04:48:50.803Z,99.90
2019-04-20T04:51:44.623Z,99.90
2019-04-20T04:54:31.202Z,99.90
2019-04-20T04:57:09.378Z,99.90
2019-04-20T04:59:55.307Z,99.90
2019-04-20T05:02:46.571Z,99.90
2019-04-20T05:05:51.780Z,99.90
2019-04-20T05:08:26.155Z,99.90
2019-04-20T05:11:06.929Z,99.90
2019-04-20T05:13:58.600Z,99.90
2019-04-20T05:16:54.983Z,99.90
2019-04-20T05:19:47.530Z,99.90
2019-04-20T05:22:38.988Z,99.90
2019-04-20T05:25:36.717Z,99.90
2019-04-20T05:28:24.230Z,99.90
2019-04-20T05:31:03.433Z,99.90
2019-04-20T05:34:17.347Z,99.90
2019-04-20T05:37:03.686Z,99.90
2019-04-20T05:39:47.409Z,99.90
2019-04-20T05:42:33.938Z,99.90
2019-04-20T05:45:11.812Z,99.90
2019-04-20T05:47:59.005Z,99.90
2019-04-20T05:50:51.935Z,99.90
2019-04-20T05:53:42.601Z,99.90
2019-04-20T05:56:32.773Z,99.90
2019-04-20T05:59:11.704Z,99.90
2019-04-20T06:02:03.632Z,99.90
2019-04-20T06:07:34.729Z,99.90
2019-04-20T06:10:22.249Z,99.80
2019-04-20T06:13:17.299Z,99.00
2019-04-20T06:16:12.938Z,97.50
2019-04-20T06:19:11.234Z,95.40
2019-04-20T06:21:57.620Z,93.50
2019-04-20T06:24:52.798Z,93.50
2019-04-20T06:27:38.407Z,91.40
2019-04-20T06:30:11.155Z,89.00
2019-04-20T06:33:52.959Z,80.60
2019-04-20T06:36:33.892Z,71.30
2019-04-20T06:39:30.873Z,68.20
2019-04-20T06:45:05.710Z,66.60
2019-04-20T06:47:39.313Z,65.90
2019-04-20T06:50:18.487Z,62.50
2019-04-20T06:53:31.068Z,58.80
2019-04-20T06:56:08.041Z,61.20
2019-04-20T06:58:54.462Z,57.90
2019-04-20T07:01:43.338Z,58.20
2019-04-20T07:04:40.237Z,55.10
2019-04-20T07:07:14.148Z,55.50
2019-04-20T07:10:08.772Z,55.70
2019-04-20T07:12:43.627Z,55.40
2019-04-20T07:15:28.540Z,54.30
2019-04-20T07:18:26.159Z,52.60
2019-04-20T07:21:40.546Z,51.50
2019-04-20T07:24:14.266Z,51.10
2019-04-20T07:26:55.516Z,50.90
2019-04-20T07:29:46.051Z,51.40
2019-04-20T07:32:38.707Z,50.20
2019-04-20T07:35:19.862Z,50.70
2019-04-20T07:38:25.608Z,49.60
2019-04-20T07:40:55.262Z,48.00
2019-04-20T07:43:51.655Z,48.60
2019-04-20T07:46:42.467Z,48.40
2019-04-20T07:49:13.773Z,48.20
2019-04-20T07:51:42.449Z,48.00
2019-04-20T07:55:03.604Z,49.40
2019-04-20T07:57:31.325Z,47.30
2019-04-20T08:00:27.554Z,46.60
2019-04-20T08:03:33.690Z,46.40
2019-04-20T08:06:16.590Z,46.20
2019-04-20T08:09:08.298Z,47.10
2019-04-20T08:12:15.385Z,46.00
2019-04-20T08:14:55.451Z,45.90
2019-04-20T08:20:26.747Z,47.20
2019-04-20T08:23:12.846Z,45.10
2019-04-20T08:25:50.076Z,44.90
2019-04-20T08:28:53.506Z,43.20
2019-04-20T08:31:55.894Z,43.20
2019-04-20T08:34:50.410Z,42.40
2019-04-20T08:37:34.378Z,42.50
2019-04-20T08:40:34.494Z,43.50
2019-04-20T08:43:32.670Z,42.30
2019-04-20T08:46:05.303Z,43.10
2019-04-20T08:48:50.956Z,42.30
2019-04-20T08:51:41.948Z,42.70
2019-04-20T08:54:24.818Z,42.40
2019-04-20T08:56:56.725Z,41.70
2019-04-20T08:59:40.238Z,40.60
2019-04-20T09:02:25.850Z,40.90
2019-04-20T09:05:24.881Z,41.60
2019-04-20T09:08:08.151Z,41.60
2019-04-20T09:11:06.669Z,40.30
2019-04-20T09:13:40.753Z,39.70
2019-04-20T09:16:28.918Z,39.00
2019-04-20T09:19:11.330Z,39.00
2019-04-20T09:22:10.311Z,38.10
2019-04-20T09:25:13.410Z,39.20
2019-04-20T09:27:41.773Z,37.70
2019-04-20T09:30:49.690Z,39.40
2019-04-20T09:33:48.661Z,38.80
2019-04-20T09:36:35.279Z,37.70
2019-04-20T09:39:21.076Z,38.10
2019-04-20T09:42:12.779Z,38.30
2019-04-20T09:45:02.431Z,38.60
2019-04-20T09:47:49.842Z,37.60
2019-04-20T09:50:56.480Z,38.20
2019-04-20T09:53:33.671Z,38.20
2019-04-20T09:56:27.466Z,37.50
2019-04-20T09:59:12.338Z,38.70
2019-04-20T10:01:45.946Z,36.90
2019-04-20T10:04:27.012Z,37.60
2019-04-20T10:07:16.606Z,37.50
2019-04-20T10:09:59.948Z,39.10
2019-04-20T10:12:44.945Z,35.90
2019-04-20T10:15:31.368Z,36.20
2019-04-20T10:18:17.504Z,35.80
2019-04-20T10:21:02.735Z,35.30
2019-04-20T10:23:48.294Z,34.50
2019-04-20T10:26:34.437Z,33.90
2019-04-20T10:29:19.643Z,33.70
2019-04-20T10:32:07.942Z,35.50
2019-04-20T10:34:52.726Z,36.30
2019-04-20T10:37:40.085Z,37.40
2019-04-20T10:40:39.079Z,37.80
2019-04-20T10:43:14.145Z,38.60
2019-04-20T10:46:00.283Z,39.30
2019-04-20T10:48:49.463Z,39.10
2019-04-20T10:51:33.583Z,39.50
2019-04-20T10:54:18.873Z,38.20
2019-04-20T10:57:05.749Z,38.90
2019-04-20T10:59:51.951Z,37.00
2019-04-20T11:02:57.476Z,36.80
2019-04-20T11:05:44.609Z,36.90
2019-04-20T11:08:30.698Z,37.60
2019-04-20T11:11:23.863Z,37.00
2019-04-20T11:14:11.543Z,36.40
2019-04-20T11:16:51.709Z,36.10
2019-04-20T11:19:37.152Z,34.20
2019-04-20T11:22:22.312Z,36.10
2019-04-20T11:25:08.303Z,35.00
2019-04-20T11:27:54.827Z,35.00
2019-04-20T11:30:40.435Z,34.90
2019-04-20T11:33:25.804Z,32.80
2019-04-20T11:36:11.165Z,34.30
2019-04-20T11:38:56.730Z,34.30
2019-04-20T11:41:41.754Z,35.70
2019-04-20T11:44:29.728Z,34.40
2019-04-20T11:47:14.707Z,35.10
2019-04-20T11:50:00.059Z,35.80
2019-04-20T11:52:48.163Z,33.70
2019-04-20T11:55:34.113Z,33.90
2019-04-20T11:58:19.714Z,33.20
2019-04-20T12:01:12.185Z,34.50
2019-04-20T12:04:01.972Z,32.30
2019-04-20T12:06:41.453Z,33.00
2019-04-20T12:09:27.090Z,32.80
2019-04-20T12:12:24.350Z,32.30
2019-04-20T12:15:00.859Z,33.50
2019-04-20T12:17:47.264Z,34.30
2019-04-20T12:20:32.783Z,32.90
2019-04-20T12:23:20.263Z,33.00
2019-04-20T12:26:06.669Z,33.60
2019-04-20T12:28:53.707Z,33.30
2019-04-20T12:31:39.768Z,33.20
2019-04-20T12:34:26.396Z,33.20
2019-04-20T12:37:11.445Z,34.20
2019-04-20T12:39:57.383Z,32.40
2019-04-20T12:42:43.176Z,34.00
2019-04-20T12:45:29.569Z,31.10
2019-04-20T12:48:15.589Z,32.40
2019-04-20T12:51:01.638Z,32.30
2019-04-20T12:53:46.843Z,30.10
2019-04-20T12:56:32.694Z,31.20
2019-04-20T12:59:18.172Z,31.20
2019-04-20T13:02:05.077Z,31.70
2019-04-20T13:04:51.154Z,29.50
2019-04-20T13:07:42.137Z,29.90
2019-04-20T13:10:25.347Z,28.80
2019-04-20T13:13:12.845Z,28.80
2019-04-20T13:16:16.332Z,27.30
2019-04-20T13:19:03.508Z,25.60
2019-04-20T13:21:49.206Z,24.50
2019-04-20T13:24:34.660Z,22.70
2019-04-20T13:27:20.889Z,22.20
2019-04-20T13:30:09.186Z,21.10
2019-04-20T13:32:57.032Z,20.30
2019-04-20T13:35:43.884Z,20.40
2019-04-20T13:38:30.195Z,19.50
2019-04-20T13:41:15.830Z,19.20
2019-04-20T13:44:02.028Z,20.00
2019-04-20T13:46:48.974Z,20.50
2019-04-20T13:49:34.919Z,20.30
2019-04-20T13:52:20.598Z,20.40
2019-04-20T13:55:06.488Z,21.70
2019-04-20T13:58:00.015Z,22.30
2019-04-20T14:00:59.167Z,22.90
2019-04-20T14:03:44.999Z,23.10
2019-04-20T14:06:30.445Z,23.40
2019-04-20T14:09:15.471Z,24.20
2019-04-20T14:12:12.993Z,24.30
2019-04-20T14:14:48.937Z,24.80
2019-04-20T14:17:35.058Z,24.40
2019-04-20T14:20:22.146Z,25.30
2019-04-20T14:23:07.456Z,25.80
2019-04-20T14:25:52.800Z,27.00
2019-04-20T14:28:38.775Z,27.70
2019-04-20T14:31:23.897Z,27.00
2019-04-20T14:34:08.876Z,27.00
2019-04-20T14:36:55.092Z,27.20
2019-04-20T14:39:40.628Z,27.00
2019-04-20T14:42:35.577Z,27.50
2019-04-20T14:45:14.356Z,28.60
2019-04-20T14:47:59.924Z,28.20
2019-04-20T14:50:45.645Z,28.50
2019-04-20T14:53:33.516Z,27.60
2019-04-20T14:56:19.751Z,28.70
2019-04-20T14:59:07.598Z,27.40
2019-04-20T15:01:57.163Z,27.70
2019-04-20T15:04:50.521Z,27.90
2019-04-20T15:07:36.466Z,28.00
2019-04-20T15:10:22.624Z,28.40
2019-04-20T15:13:09.610Z,28.20
2019-04-20T15:15:55.297Z,28.50
2019-04-20T15:18:48.299Z,29.70
2019-04-20T15:21:37.728Z,29.50
2019-04-20T15:24:23.769Z,30.30
2019-04-20T15:27:09.957Z,29.00
2019-04-20T15:29:56.137Z,28.70
2019-04-20T15:32:42.986Z,29.40
2019-04-20T15:35:28.300Z,28.20
2019-04-20T15:38:13.669Z,27.00
2019-04-20T15:40:59.446Z,28.30
2019-04-20T15:43:45.393Z,27.70
2019-04-20T15:46:34.379Z,27.30
2019-04-20T15:49:19.896Z,26.90
2019-04-20T15:52:05.899Z,27.10
2019-04-20T15:54:51.801Z,27.50
2019-04-20T15:57:38.549Z,27.50
2019-04-20T16:00:24.638Z,28.10
2019-04-20T16:03:12.014Z,27.30
2019-04-20T16:05:58.945Z,27.30
2019-04-20T16:08:46.045Z,27.00
2019-04-20T16:11:32.796Z,27.50
2019-04-20T16:14:17.876Z,26.80
2019-04-20T16:17:05.466Z,25.50
2019-04-20T16:19:58.662Z,25.30
2019-04-20T16:22:38.441Z,25.10
2019-04-20T16:25:25.733Z,25.00
2019-04-20T16:28:11.880Z,24.70
2019-04-20T16:30:57.422Z,24.70
2019-04-20T16:33:42.664Z,24.70
2019-04-20T16:36:28.453Z,25.40
2019-04-20T16:39:14.441Z,24.80
2019-04-20T16:42:00.400Z,24.10
2019-04-20T16:44:47.166Z,23.90
2019-04-20T16:47:34.523Z,22.90
2019-04-20T16:50:19.755Z,23.30
2019-04-20T16:53:06.534Z,24.40
2019-04-20T16:55:52.782Z,25.10
2019-04-20T16:58:37.975Z,26.00
2019-04-20T17:01:23.531Z,26.80
2019-04-20T17:04:13.602Z,27.90
2019-04-20T17:07:16.584Z,28.40
2019-04-20T17:10:05.023Z,28.80
2019-04-20T17:12:49.882Z,29.80
2019-04-20T17:15:37.326Z,30.90
2019-04-20T17:18:23.570Z,31.00
2019-04-20T17:21:16.723Z,31.90
2019-04-20T17:23:55.772Z,31.70
2019-04-20T17:26:45.263Z,31.50
2019-04-20T17:29:50.237Z,32.10
2019-04-20T17:32:37.173Z,32.50
2019-04-20T17:35:37.079Z,31.30
2019-04-20T17:38:10.854Z,32.20
2019-04-20T17:41:14.594Z,32.30
2019-04-20T17:44:00.326Z,32.50
2019-04-20T17:46:43.881Z,32.80
2019-04-20T17:49:31.425Z,33.60
2019-04-20T17:52:32.320Z,34.00
2019-04-20T17:55:24.565Z,33.70
2019-04-20T17:58:00.016Z,34.20
2019-04-20T18:01:06.148Z,34.90
2019-04-20T18:04:27.354Z,34.70
2019-04-20T18:06:56.725Z,34.40
2019-04-20T18:09:49.280Z,34.70
2019-04-20T18:12:26.878Z,35.80
2019-04-20T18:15:29.438Z,35.30
2019-04-20T18:18:28.500Z,35.60
2019-04-20T18:21:03.511Z,36.90
2019-04-20T18:23:51.629Z,37.40
2019-04-20T18:26:54.386Z,37.70
2019-04-20T18:29:40.888Z,38.40
2019-04-20T18:32:31.477Z,38.80
2019-04-20T18:35:24.623Z,37.50
2019-04-20T18:38:14.861Z,39.80
2019-04-20T18:41:02.660Z,40.30
2019-04-20T18:43:50.415Z,40.90
2019-04-20T18:46:55.531Z,40.20
2019-04-20T18:49:35.012Z,41.60
2019-04-20T18:52:07.244Z,41.50
2019-04-20T18:54:55.357Z,41.70
2019-04-20T18:57:39.747Z,42.20
2019-04-20T19:00:31.867Z,41.70
2019-04-20T19:03:20.502Z,42.90
2019-04-20T19:06:00.141Z,43.20
2019-04-20T19:08:49.984Z,42.50
2019-04-20T19:11:37.517Z,44.10
2019-04-20T19:14:33.600Z,44.40
2019-04-20T19:17:20.990Z,44.00
2019-04-20T19:20:16.022Z,44.90
2019-04-20T19:23:02.160Z,44.70
2019-04-20T19:25:47.852Z,44.80
2019-04-20T19:28:42.245Z,46.40
2019-04-20T19:31:37.923Z,46.00
2019-04-20T19:34:26.434Z,45.60
2019-04-20T19:37:06.212Z,46.10
2019-04-20T19:39:53.190Z,46.30
2019-04-20T19:42:38.955Z,46.70
2019-04-20T19:45:42.313Z,46.80
2019-04-20T19:48:17.716Z,46.30
2019-04-20T19:51:12.964Z,47.80
2019-04-20T19:53:59.574Z,48.90
2019-04-20T19:56:43.571Z,48.20
2019-04-20T19:59:23.435Z,49.60
2019-04-20T20:02:00.301Z,49.20
2019-04-20T20:04:50.727Z,49.80
2019-04-20T20:07:39.539Z,50.50
2019-04-20T20:10:20.820Z,50.10
2019-04-20T20:13:08.202Z,51.90
2019-04-20T20:16:04.382Z,50.70
2019-04-20T20:18:57.529Z,51.00
2019-04-20T20:21:38.587Z,51.50
2019-04-20T20:24:15.842Z,51.80
2019-04-20T20:27:07.322Z,52.00
2019-04-20T20:30:03.779Z,54.10
2019-04-20T20:32:54.924Z,52.90
2019-04-20T20:35:26.123Z,53.90
2019-04-20T20:38:19.141Z,54.10
2019-04-20T20:41:10.545Z,54.00
2019-04-20T20:43:56.383Z,55.00
2019-04-20T20:46:39.513Z,54.40
2019-04-20T20:49:40.175Z,55.20
2019-04-20T20:52:26.365Z,55.60
2019-04-20T20:55:00.794Z,56.50
2019-04-20T20:57:47.317Z,56.90
2019-04-20T21:00:41.795Z,57.60
2019-04-20T21:03:23.732Z,58.10
2019-04-20T21:06:00.083Z,59.10
2019-04-20T21:08:50.043Z,60.80
2019-04-20T21:11:36.114Z,61.70
2019-04-20T21:14:26.084Z,65.00
2019-04-20T21:17:15.631Z,65.40
2019-04-20T21:20:14.423Z,67.00
2019-04-20T21:23:01.403Z,70.40
2019-04-20T21:25:37.757Z,71.60
2019-04-20T21:28:20.663Z,75.60
2019-04-20T21:31:12.275Z,77.40
2019-04-20T21:33:55.101Z,80.10
2019-04-20T21:36:40.991Z,80.80
2019-04-20T21:39:37.369Z,81.60
2019-04-20T21:42:19.232Z,79.70
2019-04-20T21:45:10.271Z,75.60
2019-04-20T21:47:52.641Z,76.90
2019-04-20T21:50:58.261Z,79.40
2019-04-20T21:53:29.678Z,80.00
2019-04-20T21:56:12.243Z,75.80
2019-04-20T21:59:03.788Z,74.50
2019-04-20T22:01:55.216Z,75.10
2019-04-20T22:04:33.461Z,76.50
2019-04-20T22:07:18.606Z,79.30
2019-04-20T22:10:07.124Z,78.00
2019-04-20T22:12:58.704Z,77.00
2019-04-20T22:15:46.698Z,75.10
2019-04-20T22:18:27.159Z,76.00
2019-04-20T22:21:21.407Z,74.30
2019-04-20T22:24:10.477Z,74.10
2019-04-20T22:26:54.933Z,76.00
2019-04-20T22:29:34.408Z,73.60
2019-04-20T22:32:21.783Z,68.90
2019-04-20T22:35:11.716Z,68.10
2019-04-20T22:38:05.228Z,68.50
2019-04-20T22:40:46.810Z,69.00
2019-04-20T22:43:36.914Z,70.10
2019-04-20T22:46:24.795Z,67.90
2019-04-20T22:49:22.304Z,68.50
2019-04-20T22:52:02.781Z,73.50
2019-04-20T22:54:54.742Z,78.10
2019-04-20T22:57:45.084Z,78.00
2019-04-20T23:00:29.316Z,77.80
2019-04-20T23:03:05.173Z,77.30
2019-04-20T23:05:50.993Z,81.50
2019-04-20T23:08:36.228Z,84.70
2019-04-20T23:11:25.215Z,79.20
2019-04-20T23:14:08.714Z,81.80
2019-04-20T23:16:55.674Z,81.00
2019-04-20T23:19:48.561Z,84.20
2019-04-20T23:22:36.858Z,86.80
2019-04-20T23:25:15.398Z,86.00
2019-04-20T23:28:06.458Z,89.00
2019-04-20T23:30:54.307Z,88.30
2019-04-20T23:33:36.041Z,85.10
2019-04-20T23:36:29.210Z,86.00
2019-04-20T23:39:08.696Z,83.20
2019-04-20T23:42:00.425Z,87.40
2019-04-20T23:44:54.311Z,90.10
2019-04-20T23:47:49.898Z,88.30
2019-04-20T23:50:47.688Z,90.70
2019-04-20T23:53:33.958Z,92.00
2019-04-20T23:56:05.918Z,92.30
2019-04-20T23:58:53.475Z,92.00
